sensor_id;sensor_type;location;lat;lon;timestamp;P1;durP1;ratioP1;P2;durP2;ratioP2
12950;SDS011;6540;50.858;7.232;2022-11-20T00:01:14;9.83;;;5.87;;
12950;SDS011;6540;50.858;7.232;2022-11-20T00:03:44;9.90;;;6.60;;
12950;SDS011;6540;50.858;7.232;2022-11-20T00:06:11;9.77;;;6.47;;
12950;SDS011;6540;50.858;7.232;2022-11-20T00:08:39;7.90;;;5.90;;
12950;SDS011;6540;50.858;7.232;2022-11-20T00:11:05;9.27;;;6.17;;
12950;SDS011;6540;50.858;7.232;2022-11-20T00:13:32;10.53;;;6.53;;
12950;SDS011;6540;50.858;7.232;2022-11-20T00:15:58;10.03;;;6.70;;
12950;SDS011;6540;50.858;7.232;2022-11-20T00:18:25;9.37;;;5.83;;
12950;SDS011;6540;50.858;7.232;2022-11-20T00:20:51;12.07;;;6.80;;
12950;SDS011;6540;50.858;7.232;2022-11-20T00:23:16;8.07;;;5.80;;
12950;SDS011;6540;50.858;7.232;2022-11-20T00:25:41;8.30;;;5.77;;
12950;SDS011;6540;50.858;7.232;2022-11-20T00:28:07;10.07;;;6.10;;
12950;SDS011;6540;50.858;7.232;2022-11-20T00:30:32;9.93;;;6.17;;
12950;SDS011;6540;50.858;7.232;2022-11-20T00:32:57;10.53;;;6.23;;
12950;SDS011;6540;50.858;7.232;2022-11-20T00:35:23;8.20;;;6.30;;
12950;SDS011;6540;50.858;7.232;2022-11-20T00:37:48;11.80;;;6.17;;
12950;SDS011;6540;50.858;7.232;2022-11-20T00:40:13;10.63;;;5.90;;
12950;SDS011;6540;50.858;7.232;2022-11-20T00:42:39;9.67;;;5.67;;
12950;SDS011;6540;50.858;7.232;2022-11-20T00:45:04;12.60;;;6.53;;
12950;SDS011;6540;50.858;7.232;2022-11-20T00:47:30;8.20;;;6.10;;
12950;SDS011;6540;50.858;7.232;2022-11-20T00:49:55;8.73;;;5.47;;
12950;SDS011;6540;50.858;7.232;2022-11-20T00:52:21;8.50;;;6.03;;
12950;SDS011;6540;50.858;7.232;2022-11-20T00:54:46;9.17;;;5.80;;
12950;SDS011;6540;50.858;7.232;2022-11-20T00:57:11;18.00;;;6.97;;
12950;SDS011;6540;50.858;7.232;2022-11-20T00:59:37;24.53;;;12.97;;
12950;SDS011;6540;50.858;7.232;2022-11-20T01:02:02;28.83;;;12.97;;
12950;SDS011;6540;50.858;7.232;2022-11-20T01:04:27;31.30;;;14.70;;
12950;SDS011;6540;50.858;7.232;2022-11-20T01:06:53;35.70;;;16.10;;
12950;SDS011;6540;50.858;7.232;2022-11-20T01:09:18;21.50;;;10.73;;
12950;SDS011;6540;50.858;7.232;2022-11-20T01:11:44;30.23;;;14.13;;
12950;SDS011;6540;50.858;7.232;2022-11-20T01:14:11;24.83;;;13.07;;
12950;SDS011;6540;50.858;7.232;2022-11-20T01:16:45;22.47;;;11.10;;
12950;SDS011;6540;50.858;7.232;2022-11-20T01:19:14;11.67;;;7.03;;
12950;SDS011;6540;50.858;7.232;2022-11-20T01:21:45;31.80;;;14.17;;
12950;SDS011;6540;50.858;7.232;2022-11-20T01:24:13;21.57;;;9.30;;
12950;SDS011;6540;50.858;7.232;2022-11-20T01:26:40;11.13;;;6.67;;
12950;SDS011;6540;50.858;7.232;2022-11-20T01:29:14;9.73;;;6.37;;
12950;SDS011;6540;50.858;7.232;2022-11-20T01:31:42;10.87;;;6.57;;
12950;SDS011;6540;50.858;7.232;2022-11-20T01:34:12;9.33;;;5.77;;
12950;SDS011;6540;50.858;7.232;2022-11-20T01:36:39;12.63;;;6.90;;
12950;SDS011;6540;50.858;7.232;2022-11-20T01:39:07;10.13;;;6.27;;
12950;SDS011;6540;50.858;7.232;2022-11-20T01:41:36;7.67;;;5.27;;
12950;SDS011;6540;50.858;7.232;2022-11-20T01:44:21;11.10;;;6.20;;
12950;SDS011;6540;50.858;7.232;2022-11-20T01:47:07;10.43;;;5.93;;
12950;SDS011;6540;50.858;7.232;2022-11-20T01:49:37;10.10;;;6.47;;
12950;SDS011;6540;50.858;7.232;2022-11-20T01:52:12;10.67;;;6.53;;
12950;SDS011;6540;50.858;7.232;2022-11-20T01:54:43;9.77;;;7.07;;
12950;SDS011;6540;50.858;7.232;2022-11-20T01:57:16;10.73;;;6.10;;
12950;SDS011;6540;50.858;7.232;2022-11-20T01:59:45;8.63;;;6.27;;
12950;SDS011;6540;50.858;7.232;2022-11-20T02:02:16;11.03;;;6.63;;
12950;SDS011;6540;50.858;7.232;2022-11-20T02:04:42;10.07;;;6.20;;
12950;SDS011;6540;50.858;7.232;2022-11-20T02:07:09;9.00;;;6.20;;
12950;SDS011;6540;50.858;7.232;2022-11-20T02:09:35;8.83;;;6.13;;
12950;SDS011;6540;50.858;7.232;2022-11-20T02:12:00;8.00;;;5.53;;
12950;SDS011;6540;50.858;7.232;2022-11-20T02:14:26;9.53;;;6.53;;
12950;SDS011;6540;50.858;7.232;2022-11-20T02:16:52;10.97;;;6.70;;
12950;SDS011;6540;50.858;7.232;2022-11-20T02:19:24;10.13;;;6.37;;
12950;SDS011;6540;50.858;7.232;2022-11-20T02:21:54;8.00;;;6.00;;
12950;SDS011;6540;50.858;7.232;2022-11-20T02:24:26;8.17;;;6.30;;
12950;SDS011;6540;50.858;7.232;2022-11-20T02:26:59;9.63;;;6.07;;
12950;SDS011;6540;50.858;7.232;2022-11-20T02:32:17;9.03;;;6.03;;
12950;SDS011;6540;50.858;7.232;2022-11-20T02:34:50;9.03;;;6.13;;
12950;SDS011;6540;50.858;7.232;2022-11-20T02:37:16;10.00;;;6.23;;
12950;SDS011;6540;50.858;7.232;2022-11-20T02:39:43;9.20;;;5.67;;
12950;SDS011;6540;50.858;7.232;2022-11-20T02:42:10;9.47;;;6.33;;
12950;SDS011;6540;50.858;7.232;2022-11-20T02:44:36;9.43;;;6.40;;
12950;SDS011;6540;50.858;7.232;2022-11-20T02:47:01;10.33;;;5.60;;
12950;SDS011;6540;50.858;7.232;2022-11-20T02:49:27;8.03;;;5.53;;
12950;SDS011;6540;50.858;7.232;2022-11-20T02:51:52;9.47;;;6.40;;
12950;SDS011;6540;50.858;7.232;2022-11-20T02:54:17;14.13;;;7.80;;
12950;SDS011;6540;50.858;7.232;2022-11-20T02:56:43;11.73;;;6.90;;
12950;SDS011;6540;50.858;7.232;2022-11-20T02:59:08;10.67;;;6.07;;
12950;SDS011;6540;50.858;7.232;2022-11-20T03:01:34;11.47;;;6.90;;
12950;SDS011;6540;50.858;7.232;2022-11-20T03:03:59;9.80;;;6.13;;
12950;SDS011;6540;50.858;7.232;2022-11-20T03:06:25;9.00;;;6.33;;
12950;SDS011;6540;50.858;7.232;2022-11-20T03:08:50;11.03;;;7.00;;
12950;SDS011;6540;50.858;7.232;2022-11-20T03:11:15;10.63;;;5.87;;
12950;SDS011;6540;50.858;7.232;2022-11-20T03:13:42;9.00;;;6.27;;
12950;SDS011;6540;50.858;7.232;2022-11-20T03:16:12;8.43;;;6.10;;
12950;SDS011;6540;50.858;7.232;2022-11-20T03:18:39;11.00;;;6.33;;
12950;SDS011;6540;50.858;7.232;2022-11-20T03:21:06;8.73;;;6.30;;
12950;SDS011;6540;50.858;7.232;2022-11-20T03:23:32;10.77;;;6.87;;
12950;SDS011;6540;50.858;7.232;2022-11-20T03:26:07;11.07;;;7.57;;
12950;SDS011;6540;50.858;7.232;2022-11-20T03:28:36;10.97;;;7.00;;
12950;SDS011;6540;50.858;7.232;2022-11-20T03:31:11;12.10;;;6.80;;
12950;SDS011;6540;50.858;7.232;2022-11-20T03:33:39;13.93;;;7.43;;
12950;SDS011;6540;50.858;7.232;2022-11-20T03:36:06;11.00;;;7.93;;
12950;SDS011;6540;50.858;7.232;2022-11-20T03:38:37;10.50;;;6.50;;
12950;SDS011;6540;50.858;7.232;2022-11-20T03:41:07;9.57;;;6.37;;
12950;SDS011;6540;50.858;7.232;2022-11-20T03:43:35;10.57;;;7.17;;
12950;SDS011;6540;50.858;7.232;2022-11-20T03:46:00;11.03;;;7.90;;
12950;SDS011;6540;50.858;7.232;2022-11-20T03:48:27;11.63;;;7.67;;
12950;SDS011;6540;50.858;7.232;2022-11-20T03:50:53;10.40;;;7.33;;
12950;SDS011;6540;50.858;7.232;2022-11-20T03:53:30;11.57;;;7.57;;
12950;SDS011;6540;50.858;7.232;2022-11-20T03:55:56;11.27;;;7.33;;
12950;SDS011;6540;50.858;7.232;2022-11-20T03:58:21;14.93;;;9.13;;
12950;SDS011;6540;50.858;7.232;2022-11-20T04:00:46;10.43;;;7.30;;
12950;SDS011;6540;50.858;7.232;2022-11-20T04:03:12;10.90;;;7.60;;
12950;SDS011;6540;50.858;7.232;2022-11-20T04:05:37;8.43;;;6.10;;
12950;SDS011;6540;50.858;7.232;2022-11-20T04:08:02;10.30;;;7.73;;
12950;SDS011;6540;50.858;7.232;2022-11-20T04:10:28;11.70;;;7.90;;
12950;SDS011;6540;50.858;7.232;2022-11-20T04:12:53;10.77;;;7.03;;
12950;SDS011;6540;50.858;7.232;2022-11-20T04:15:18;12.40;;;7.80;;
12950;SDS011;6540;50.858;7.232;2022-11-20T04:17:44;10.13;;;6.20;;
12950;SDS011;6540;50.858;7.232;2022-11-20T04:20:09;12.27;;;7.13;;
12950;SDS011;6540;50.858;7.232;2022-11-20T04:22:35;11.67;;;7.10;;
12950;SDS011;6540;50.858;7.232;2022-11-20T04:25:00;13.00;;;7.43;;
12950;SDS011;6540;50.858;7.232;2022-11-20T04:27:25;11.37;;;6.70;;
12950;SDS011;6540;50.858;7.232;2022-11-20T04:29:50;10.17;;;6.47;;
12950;SDS011;6540;50.858;7.232;2022-11-20T04:32:16;13.43;;;7.77;;
12950;SDS011;6540;50.858;7.232;2022-11-20T04:34:41;12.03;;;7.70;;
12950;SDS011;6540;50.858;7.232;2022-11-20T04:37:06;13.47;;;7.97;;
12950;SDS011;6540;50.858;7.232;2022-11-20T04:39:32;12.20;;;8.47;;
12950;SDS011;6540;50.858;7.232;2022-11-20T04:41:57;16.67;;;8.43;;
12950;SDS011;6540;50.858;7.232;2022-11-20T04:44:41;11.30;;;7.03;;
12950;SDS011;6540;50.858;7.232;2022-11-20T04:47:06;15.33;;;7.63;;
12950;SDS011;6540;50.858;7.232;2022-11-20T04:49:32;12.63;;;7.63;;
12950;SDS011;6540;50.858;7.232;2022-11-20T04:51:58;13.60;;;7.90;;
12950;SDS011;6540;50.858;7.232;2022-11-20T04:54:24;13.93;;;8.50;;
12950;SDS011;6540;50.858;7.232;2022-11-20T04:56:49;11.80;;;6.90;;
12950;SDS011;6540;50.858;7.232;2022-11-20T04:59:15;10.23;;;6.90;;
12950;SDS011;6540;50.858;7.232;2022-11-20T05:01:40;12.30;;;7.63;;
12950;SDS011;6540;50.858;7.232;2022-11-20T05:04:06;12.30;;;7.63;;
12950;SDS011;6540;50.858;7.232;2022-11-20T05:06:32;13.90;;;7.77;;
12950;SDS011;6540;50.858;7.232;2022-11-20T05:08:57;11.33;;;7.07;;
12950;SDS011;6540;50.858;7.232;2022-11-20T05:11:23;13.57;;;7.90;;
12950;SDS011;6540;50.858;7.232;2022-11-20T05:13:49;13.40;;;7.57;;
12950;SDS011;6540;50.858;7.232;2022-11-20T05:16:17;10.87;;;7.20;;
12950;SDS011;6540;50.858;7.232;2022-11-20T05:18:46;11.70;;;7.90;;
12950;SDS011;6540;50.858;7.232;2022-11-20T05:21:12;12.97;;;7.97;;
12950;SDS011;6540;50.858;7.232;2022-11-20T05:23:38;14.77;;;7.90;;
12950;SDS011;6540;50.858;7.232;2022-11-20T05:26:05;10.33;;;6.77;;
12950;SDS011;6540;50.858;7.232;2022-11-20T05:28:32;14.50;;;8.03;;
12950;SDS011;6540;50.858;7.232;2022-11-20T05:31:05;10.87;;;7.50;;
12950;SDS011;6540;50.858;7.232;2022-11-20T05:33:42;14.77;;;8.23;;
12950;SDS011;6540;50.858;7.232;2022-11-20T05:36:09;14.10;;;9.37;;
12950;SDS011;6540;50.858;7.232;2022-11-20T05:38:36;19.93;;;13.37;;
12950;SDS011;6540;50.858;7.232;2022-11-20T05:41:03;24.10;;;14.37;;
12950;SDS011;6540;50.858;7.232;2022-11-20T05:43:36;18.37;;;10.10;;
12950;SDS011;6540;50.858;7.232;2022-11-20T05:46:03;25.20;;;16.03;;
12950;SDS011;6540;50.858;7.232;2022-11-20T05:48:29;20.67;;;13.43;;
12950;SDS011;6540;50.858;7.232;2022-11-20T05:50:56;11.00;;;8.03;;
12950;SDS011;6540;50.858;7.232;2022-11-20T05:53:22;11.73;;;7.50;;
12950;SDS011;6540;50.858;7.232;2022-11-20T05:55:55;12.33;;;7.23;;
12950;SDS011;6540;50.858;7.232;2022-11-20T05:58:21;14.37;;;7.53;;
12950;SDS011;6540;50.858;7.232;2022-11-20T06:00:47;10.33;;;7.10;;
12950;SDS011;6540;50.858;7.232;2022-11-20T06:03:12;12.63;;;8.40;;
12950;SDS011;6540;50.858;7.232;2022-11-20T06:05:37;10.70;;;6.03;;
12950;SDS011;6540;50.858;7.232;2022-11-20T06:08:02;11.10;;;7.17;;
12950;SDS011;6540;50.858;7.232;2022-11-20T06:10:28;10.13;;;7.17;;
12950;SDS011;6540;50.858;7.232;2022-11-20T06:12:53;13.57;;;7.77;;
12950;SDS011;6540;50.858;7.232;2022-11-20T06:15:22;12.00;;;7.37;;
12950;SDS011;6540;50.858;7.232;2022-11-20T06:17:51;10.57;;;7.67;;
12950;SDS011;6540;50.858;7.232;2022-11-20T06:20:17;12.80;;;7.63;;
12950;SDS011;6540;50.858;7.232;2022-11-20T06:22:42;11.73;;;7.90;;
12950;SDS011;6540;50.858;7.232;2022-11-20T06:25:08;13.03;;;8.50;;
12950;SDS011;6540;50.858;7.232;2022-11-20T06:27:33;11.57;;;7.77;;
12950;SDS011;6540;50.858;7.232;2022-11-20T06:29:58;10.40;;;7.20;;
12950;SDS011;6540;50.858;7.232;2022-11-20T06:32:24;10.23;;;6.83;;
12950;SDS011;6540;50.858;7.232;2022-11-20T06:34:49;11.10;;;6.53;;
12950;SDS011;6540;50.858;7.232;2022-11-20T06:37:14;12.23;;;8.03;;
12950;SDS011;6540;50.858;7.232;2022-11-20T06:39:40;10.50;;;7.63;;
12950;SDS011;6540;50.858;7.232;2022-11-20T06:42:05;13.03;;;7.90;;
12950;SDS011;6540;50.858;7.232;2022-11-20T06:44:30;10.03;;;7.07;;
12950;SDS011;6540;50.858;7.232;2022-11-20T06:46:56;13.23;;;7.13;;
12950;SDS011;6540;50.858;7.232;2022-11-20T06:49:21;10.40;;;7.03;;
12950;SDS011;6540;50.858;7.232;2022-11-20T06:51:46;12.43;;;8.13;;
12950;SDS011;6540;50.858;7.232;2022-11-20T06:54:12;13.53;;;8.07;;
12950;SDS011;6540;50.858;7.232;2022-11-20T06:56:37;16.60;;;9.27;;
12950;SDS011;6540;50.858;7.232;2022-11-20T06:59:06;16.60;;;9.03;;
12950;SDS011;6540;50.858;7.232;2022-11-20T07:01:32;16.57;;;9.40;;
12950;SDS011;6540;50.858;7.232;2022-11-20T07:03:58;14.70;;;8.33;;
12950;SDS011;6540;50.858;7.232;2022-11-20T07:06:23;12.87;;;8.37;;
12950;SDS011;6540;50.858;7.232;2022-11-20T07:08:50;13.93;;;8.43;;
12950;SDS011;6540;50.858;7.232;2022-11-20T07:11:17;10.23;;;6.90;;
12950;SDS011;6540;50.858;7.232;2022-11-20T07:13:42;12.03;;;7.40;;
12950;SDS011;6540;50.858;7.232;2022-11-20T07:16:08;12.90;;;8.63;;
12950;SDS011;6540;50.858;7.232;2022-11-20T07:18:33;10.40;;;7.33;;
12950;SDS011;6540;50.858;7.232;2022-11-20T07:21:00;10.47;;;7.30;;
12950;SDS011;6540;50.858;7.232;2022-11-20T07:23:29;11.47;;;7.63;;
12950;SDS011;6540;50.858;7.232;2022-11-20T07:25:54;12.80;;;8.20;;
12950;SDS011;6540;50.858;7.232;2022-11-20T07:28:20;12.47;;;7.63;;
12950;SDS011;6540;50.858;7.232;2022-11-20T07:30:52;11.10;;;7.33;;
12950;SDS011;6540;50.858;7.232;2022-11-20T07:33:18;12.47;;;8.33;;
12950;SDS011;6540;50.858;7.232;2022-11-20T07:35:44;11.47;;;6.73;;
12950;SDS011;6540;50.858;7.232;2022-11-20T07:38:10;14.83;;;8.37;;
12950;SDS011;6540;50.858;7.232;2022-11-20T07:40:36;13.80;;;6.87;;
12950;SDS011;6540;50.858;7.232;2022-11-20T07:43:01;12.70;;;7.17;;
12950;SDS011;6540;50.858;7.232;2022-11-20T07:45:26;12.10;;;7.70;;
12950;SDS011;6540;50.858;7.232;2022-11-20T07:47:54;12.90;;;8.53;;
12950;SDS011;6540;50.858;7.232;2022-11-20T07:50:20;10.97;;;7.80;;
12950;SDS011;6540;50.858;7.232;2022-11-20T07:52:45;11.97;;;7.50;;
12950;SDS011;6540;50.858;7.232;2022-11-20T07:55:11;11.40;;;6.83;;
12950;SDS011;6540;50.858;7.232;2022-11-20T07:57:36;11.63;;;7.30;;
12950;SDS011;6540;50.858;7.232;2022-11-20T08:00:05;12.50;;;7.90;;
12950;SDS011;6540;50.858;7.232;2022-11-20T08:02:34;11.07;;;7.30;;
12950;SDS011;6540;50.858;7.232;2022-11-20T08:05:01;13.90;;;8.70;;
12950;SDS011;6540;50.858;7.232;2022-11-20T08:07:27;13.83;;;8.90;;
12950;SDS011;6540;50.858;7.232;2022-11-20T08:09:52;12.70;;;8.30;;
12950;SDS011;6540;50.858;7.232;2022-11-20T08:12:18;13.00;;;8.93;;
12950;SDS011;6540;50.858;7.232;2022-11-20T08:15:04;16.07;;;9.43;;
12950;SDS011;6540;50.858;7.232;2022-11-20T08:17:30;16.77;;;9.37;;
12950;SDS011;6540;50.858;7.232;2022-11-20T08:19:55;14.23;;;8.80;;
12950;SDS011;6540;50.858;7.232;2022-11-20T08:22:20;15.57;;;9.83;;
12950;SDS011;6540;50.858;7.232;2022-11-20T08:24:46;20.23;;;10.30;;
12950;SDS011;6540;50.858;7.232;2022-11-20T08:27:12;14.50;;;8.57;;
12950;SDS011;6540;50.858;7.232;2022-11-20T08:29:38;17.23;;;9.57;;
12950;SDS011;6540;50.858;7.232;2022-11-20T08:32:03;14.30;;;8.60;;
12950;SDS011;6540;50.858;7.232;2022-11-20T08:34:29;18.40;;;9.10;;
12950;SDS011;6540;50.858;7.232;2022-11-20T08:36:54;14.60;;;8.77;;
12950;SDS011;6540;50.858;7.232;2022-11-20T08:39:19;19.20;;;9.40;;
12950;SDS011;6540;50.858;7.232;2022-11-20T08:41:45;14.47;;;9.40;;
12950;SDS011;6540;50.858;7.232;2022-11-20T08:44:10;15.83;;;9.30;;
12950;SDS011;6540;50.858;7.232;2022-11-20T08:46:37;15.37;;;8.73;;
12950;SDS011;6540;50.858;7.232;2022-11-20T08:49:08;12.23;;;8.27;;
12950;SDS011;6540;50.858;7.232;2022-11-20T08:51:35;17.00;;;10.33;;
12950;SDS011;6540;50.858;7.232;2022-11-20T08:54:01;14.43;;;9.50;;
12950;SDS011;6540;50.858;7.232;2022-11-20T08:56:27;14.00;;;9.60;;
12950;SDS011;6540;50.858;7.232;2022-11-20T08:58:53;17.13;;;10.20;;
12950;SDS011;6540;50.858;7.232;2022-11-20T09:01:19;14.07;;;9.70;;
12950;SDS011;6540;50.858;7.232;2022-11-20T09:03:45;15.90;;;10.10;;
12950;SDS011;6540;50.858;7.232;2022-11-20T09:06:10;19.13;;;9.80;;
12950;SDS011;6540;50.858;7.232;2022-11-20T09:08:36;18.90;;;12.47;;
12950;SDS011;6540;50.858;7.232;2022-11-20T09:11:02;20.63;;;10.90;;
12950;SDS011;6540;50.858;7.232;2022-11-20T09:13:29;19.37;;;10.70;;
12950;SDS011;6540;50.858;7.232;2022-11-20T09:15:55;16.20;;;9.80;;
12950;SDS011;6540;50.858;7.232;2022-11-20T09:18:22;19.33;;;11.37;;
12950;SDS011;6540;50.858;7.232;2022-11-20T09:20:48;14.37;;;9.83;;
12950;SDS011;6540;50.858;7.232;2022-11-20T09:23:14;17.57;;;10.70;;
12950;SDS011;6540;50.858;7.232;2022-11-20T09:25:39;17.07;;;11.17;;
12950;SDS011;6540;50.858;7.232;2022-11-20T09:28:05;18.33;;;10.90;;
12950;SDS011;6540;50.858;7.232;2022-11-20T09:30:30;16.57;;;10.63;;
12950;SDS011;6540;50.858;7.232;2022-11-20T09:32:55;18.77;;;10.60;;
12950;SDS011;6540;50.858;7.232;2022-11-20T09:35:21;14.33;;;9.63;;
12950;SDS011;6540;50.858;7.232;2022-11-20T09:37:47;17.63;;;11.23;;
12950;SDS011;6540;50.858;7.232;2022-11-20T09:50:54;19.20;;;10.47;;
12950;SDS011;6540;50.858;7.232;2022-11-20T09:53:51;15.30;;;9.30;;
12950;SDS011;6540;50.858;7.232;2022-11-20T09:56:28;15.93;;;9.90;;
12950;SDS011;6540;50.858;7.232;2022-11-20T09:58:54;15.03;;;9.80;;
12950;SDS011;6540;50.858;7.232;2022-11-20T10:01:26;16.90;;;9.33;;
12950;SDS011;6540;50.858;7.232;2022-11-20T10:03:58;13.80;;;9.83;;
12950;SDS011;6540;50.858;7.232;2022-11-20T10:06:31;12.70;;;8.90;;
12950;SDS011;6540;50.858;7.232;2022-11-20T10:11:48;18.47;;;10.77;;
12950;SDS011;6540;50.858;7.232;2022-11-20T10:14:43;15.93;;;9.23;;
12950;SDS011;6540;50.858;7.232;2022-11-20T10:25:16;15.70;;;10.87;;
12950;SDS011;6540;50.858;7.232;2022-11-20T10:28:07;14.60;;;9.67;;
12950;SDS011;6540;50.858;7.232;2022-11-20T10:30:41;15.80;;;9.30;;
12950;SDS011;6540;50.858;7.232;2022-11-20T10:33:22;20.27;;;11.47;;
12950;SDS011;6540;50.858;7.232;2022-11-20T10:35:50;16.50;;;9.87;;
12950;SDS011;6540;50.858;7.232;2022-11-20T10:38:24;12.93;;;9.40;;
12950;SDS011;6540;50.858;7.232;2022-11-20T10:40:59;16.20;;;10.13;;
12950;SDS011;6540;50.858;7.232;2022-11-20T10:43:46;14.67;;;9.23;;
12950;SDS011;6540;50.858;7.232;2022-11-20T10:46:21;18.00;;;11.03;;
12950;SDS011;6540;50.858;7.232;2022-11-20T10:48:47;18.60;;;10.73;;
12950;SDS011;6540;50.858;7.232;2022-11-20T10:56:48;15.47;;;9.43;;
12950;SDS011;6540;50.858;7.232;2022-11-20T10:59:32;16.10;;;9.53;;
12950;SDS011;6540;50.858;7.232;2022-11-20T11:02:00;16.43;;;9.00;;
12950;SDS011;6540;50.858;7.232;2022-11-20T11:07:06;12.53;;;8.47;;
12950;SDS011;6540;50.858;7.232;2022-11-20T11:09:39;14.97;;;9.83;;
12950;SDS011;6540;50.858;7.232;2022-11-20T11:12:15;15.73;;;10.63;;
12950;SDS011;6540;50.858;7.232;2022-11-20T11:14:44;15.93;;;10.03;;
12950;SDS011;6540;50.858;7.232;2022-11-20T11:17:21;14.47;;;8.53;;
12950;SDS011;6540;50.858;7.232;2022-11-20T11:20:02;16.03;;;9.37;;
12950;SDS011;6540;50.858;7.232;2022-11-20T11:22:43;15.00;;;8.60;;
12950;SDS011;6540;50.858;7.232;2022-11-20T11:27:54;12.53;;;8.67;;
12950;SDS011;6540;50.858;7.232;2022-11-20T11:30:22;13.73;;;9.10;;
12950;SDS011;6540;50.858;7.232;2022-11-20T11:32:49;16.83;;;9.70;;
12950;SDS011;6540;50.858;7.232;2022-11-20T11:35:22;20.03;;;11.60;;
12950;SDS011;6540;50.858;7.232;2022-11-20T11:37:54;15.03;;;10.23;;
12950;SDS011;6540;50.858;7.232;2022-11-20T11:40:28;12.73;;;8.80;;
12950;SDS011;6540;50.858;7.232;2022-11-20T11:42:57;12.50;;;8.87;;
12950;SDS011;6540;50.858;7.232;2022-11-20T11:45:26;16.73;;;10.43;;
12950;SDS011;6540;50.858;7.232;2022-11-20T11:47:52;18.57;;;10.80;;
12950;SDS011;6540;50.858;7.232;2022-11-20T11:50:22;14.97;;;10.20;;
12950;SDS011;6540;50.858;7.232;2022-11-20T11:55:31;16.47;;;9.10;;
12950;SDS011;6540;50.858;7.232;2022-11-20T12:03:52;18.80;;;11.07;;
12950;SDS011;6540;50.858;7.232;2022-11-20T12:06:29;16.37;;;10.90;;
12950;SDS011;6540;50.858;7.232;2022-11-20T12:09:04;18.33;;;10.97;;
12950;SDS011;6540;50.858;7.232;2022-11-20T12:11:53;18.73;;;10.67;;
12950;SDS011;6540;50.858;7.232;2022-11-20T12:14:33;15.97;;;9.70;;
12950;SDS011;6540;50.858;7.232;2022-11-20T12:17:02;15.07;;;9.63;;
12950;SDS011;6540;50.858;7.232;2022-11-20T12:19:31;20.63;;;11.47;;
12950;SDS011;6540;50.858;7.232;2022-11-20T12:29:58;19.87;;;10.63;;
12950;SDS011;6540;50.858;7.232;2022-11-20T12:43:26;18.27;;;10.30;;
12950;SDS011;6540;50.858;7.232;2022-11-20T12:48:51;16.13;;;8.60;;
12950;SDS011;6540;50.858;7.232;2022-11-20T12:56:54;16.57;;;10.17;;
12950;SDS011;6540;50.858;7.232;2022-11-20T13:07:58;15.43;;;9.57;;
12950;SDS011;6540;50.858;7.232;2022-11-20T13:13:12;15.43;;;9.83;;
12950;SDS011;6540;50.858;7.232;2022-11-20T13:18:42;16.30;;;9.20;;
12950;SDS011;6540;50.858;7.232;2022-11-20T13:21:34;14.83;;;9.10;;
12950;SDS011;6540;50.858;7.232;2022-11-20T13:26:32;17.40;;;9.13;;
12950;SDS011;6540;50.858;7.232;2022-11-20T13:29:08;15.70;;;9.40;;
12950;SDS011;6540;50.858;7.232;2022-11-20T13:31:38;16.87;;;9.10;;
12950;SDS011;6540;50.858;7.232;2022-11-20T13:34:09;14.40;;;8.93;;
12950;SDS011;6540;50.858;7.232;2022-11-20T13:36:48;18.07;;;10.37;;
12950;SDS011;6540;50.858;7.232;2022-11-20T13:39:23;14.70;;;8.93;;
12950;SDS011;6540;50.858;7.232;2022-11-20T13:41:56;16.37;;;9.40;;
12950;SDS011;6540;50.858;7.232;2022-11-20T13:44:33;15.43;;;9.43;;
12950;SDS011;6540;50.858;7.232;2022-11-20T13:47:04;15.87;;;9.57;;
12950;SDS011;6540;50.858;7.232;2022-11-20T13:49:47;16.63;;;9.17;;
12950;SDS011;6540;50.858;7.232;2022-11-20T13:55:07;14.77;;;8.33;;
12950;SDS011;6540;50.858;7.232;2022-11-20T14:00:22;13.87;;;9.83;;
12950;SDS011;6540;50.858;7.232;2022-11-20T14:03:02;15.83;;;10.73;;
12950;SDS011;6540;50.858;7.232;2022-11-20T14:05:36;14.83;;;9.80;;
12950;SDS011;6540;50.858;7.232;2022-11-20T14:08:10;14.83;;;9.20;;
12950;SDS011;6540;50.858;7.232;2022-11-20T14:10:42;11.77;;;8.67;;
12950;SDS011;6540;50.858;7.232;2022-11-20T14:13:15;16.93;;;10.37;;
12950;SDS011;6540;50.858;7.232;2022-11-20T14:15:43;14.97;;;9.57;;
12950;SDS011;6540;50.858;7.232;2022-11-20T14:18:13;14.53;;;9.90;;
12950;SDS011;6540;50.858;7.232;2022-11-20T14:20:40;16.30;;;9.20;;
12950;SDS011;6540;50.858;7.232;2022-11-20T14:23:09;14.83;;;8.87;;
12950;SDS011;6540;50.858;7.232;2022-11-20T14:25:35;20.83;;;11.80;;
12950;SDS011;6540;50.858;7.232;2022-11-20T14:28:01;14.97;;;8.77;;
12950;SDS011;6540;50.858;7.232;2022-11-20T14:30:39;19.93;;;11.60;;
12950;SDS011;6540;50.858;7.232;2022-11-20T14:33:09;18.57;;;11.93;;
12950;SDS011;6540;50.858;7.232;2022-11-20T14:35:38;16.47;;;9.17;;
12950;SDS011;6540;50.858;7.232;2022-11-20T14:38:09;13.80;;;8.23;;
12950;SDS011;6540;50.858;7.232;2022-11-20T14:40:41;14.53;;;9.40;;
12950;SDS011;6540;50.858;7.232;2022-11-20T14:45:44;12.73;;;9.17;;
12950;SDS011;6540;50.858;7.232;2022-11-20T14:48:13;13.27;;;8.90;;
12950;SDS011;6540;50.858;7.232;2022-11-20T14:50:40;11.37;;;8.60;;
12950;SDS011;6540;50.858;7.232;2022-11-20T14:53:06;15.23;;;11.60;;
12950;SDS011;6540;50.858;7.232;2022-11-20T14:55:32;17.20;;;10.53;;
12950;SDS011;6540;50.858;7.232;2022-11-20T14:58:03;18.70;;;12.60;;
12950;SDS011;6540;50.858;7.232;2022-11-20T15:00:31;21.60;;;11.43;;
12950;SDS011;6540;50.858;7.232;2022-11-20T15:02:58;17.37;;;10.80;;
12950;SDS011;6540;50.858;7.232;2022-11-20T15:05:25;40.47;;;23.00;;
12950;SDS011;6540;50.858;7.232;2022-11-20T15:08:10;19.03;;;10.33;;
12950;SDS011;6540;50.858;7.232;2022-11-20T15:10:36;19.37;;;10.90;;
12950;SDS011;6540;50.858;7.232;2022-11-20T15:13:05;14.00;;;10.13;;
12950;SDS011;6540;50.858;7.232;2022-11-20T15:15:55;16.13;;;9.83;;
12950;SDS011;6540;50.858;7.232;2022-11-20T15:18:28;14.63;;;9.93;;
12950;SDS011;6540;50.858;7.232;2022-11-20T15:20:56;13.17;;;9.20;;
12950;SDS011;6540;50.858;7.232;2022-11-20T15:23:23;13.00;;;8.37;;
12950;SDS011;6540;50.858;7.232;2022-11-20T15:25:51;16.27;;;9.23;;
12950;SDS011;6540;50.858;7.232;2022-11-20T15:28:27;13.37;;;8.43;;
12950;SDS011;6540;50.858;7.232;2022-11-20T15:30:58;14.63;;;9.23;;
12950;SDS011;6540;50.858;7.232;2022-11-20T15:33:24;12.87;;;9.13;;
12950;SDS011;6540;50.858;7.232;2022-11-20T15:35:49;12.63;;;8.63;;
12950;SDS011;6540;50.858;7.232;2022-11-20T15:38:15;14.40;;;8.30;;
12950;SDS011;6540;50.858;7.232;2022-11-20T15:40:40;13.87;;;9.67;;
12950;SDS011;6540;50.858;7.232;2022-11-20T15:43:05;16.93;;;9.77;;
12950;SDS011;6540;50.858;7.232;2022-11-20T15:48:19;13.83;;;9.60;;
12950;SDS011;6540;50.858;7.232;2022-11-20T15:51:03;18.07;;;10.63;;
12950;SDS011;6540;50.858;7.232;2022-11-20T15:53:38;18.37;;;9.83;;
12950;SDS011;6540;50.858;7.232;2022-11-20T15:56:05;17.90;;;9.83;;
12950;SDS011;6540;50.858;7.232;2022-11-20T15:58:30;23.67;;;13.13;;
12950;SDS011;6540;50.858;7.232;2022-11-20T16:00:56;16.53;;;11.17;;
12950;SDS011;6540;50.858;7.232;2022-11-20T16:03:21;20.13;;;12.50;;
12950;SDS011;6540;50.858;7.232;2022-11-20T16:05:47;22.43;;;12.10;;
12950;SDS011;6540;50.858;7.232;2022-11-20T16:08:12;18.57;;;11.00;;
12950;SDS011;6540;50.858;7.232;2022-11-20T16:10:38;29.67;;;18.30;;
12950;SDS011;6540;50.858;7.232;2022-11-20T16:13:05;37.83;;;22.60;;
12950;SDS011;6540;50.858;7.232;2022-11-20T16:15:57;16.60;;;9.90;;
12950;SDS011;6540;50.858;7.232;2022-11-20T16:18:24;35.53;;;20.53;;
12950;SDS011;6540;50.858;7.232;2022-11-20T16:20:53;16.47;;;9.93;;
12950;SDS011;6540;50.858;7.232;2022-11-20T16:23:20;15.20;;;9.70;;
12950;SDS011;6540;50.858;7.232;2022-11-20T16:25:46;10.87;;;8.30;;
12950;SDS011;6540;50.858;7.232;2022-11-20T16:28:12;14.17;;;8.53;;
12950;SDS011;6540;50.858;7.232;2022-11-20T16:30:38;16.43;;;10.37;;
12950;SDS011;6540;50.858;7.232;2022-11-20T16:33:04;10.30;;;6.63;;